Time;durP1;ratioP1;P1;durP2;ratioP2;P2;SDS_P1;SDS_P2;PMS_P1;PMS_P2;Temp;Humidity;BMP_temperature;BMP_pressure;BME280_temperature;BME280_humidity;BME280_pressure;Samples;Min_cycle;Max_cycle;Signal;HPM_P1;HPM_P2
2021/03/15 00:00:53;;;;;;;;;;;8.00;68.90;;;;;;5092804;28;20292;-77
2021/03/15 00:03:19;;;;;;;;;;;8.00;69.00;;;;;;5091178;28;19924;-78
2021/03/15 00:05:46;;;;;;;;;;;7.90;69.60;;;;;;5092729;28;19937;-78
2021/03/15 00:08:12;;;;;;;;;;;7.90;70.00;;;;;;5092601;28;19931;-78
2021/03/15 00:10:39;;;;;;;;;;;7.90;69.90;;;;;;5093146;28;19920;-77
2021/03/15 00:13:07;;;;;;;;;;;7.90;69.70;;;;;;5092628;28;19927;-76
2021/03/15 00:15:35;;;;;;;;;;;7.90;70.00;;;;;;5092312;28;20387;-76
2021/03/15 00:18:01;;;;;;;;;;;7.90;70.00;;;;;;5092590;28;19970;-77
2021/03/15 00:20:27;;;;;;;;;;;7.80;69.90;;;;;;5095522;28;19974;-76
2021/03/15 00:22:54;;;;;;;;;;;7.80;70.00;;;;;;5093862;28;19924;-77
2021/03/15 00:25:20;;;;;;;;;;;7.80;70.10;;;;;;5092680;28;19921;-77
2021/03/15 00:27:47;;;;;;;;;;;7.80;69.60;;;;;;5092509;28;20438;-76
2021/03/15 00:30:14;;;;;;;;;;;7.80;69.60;;;;;;5091344;28;20350;-77
2021/03/15 00:32:42;;;;;;;;;;;7.80;69.70;;;;;;5094278;28;19927;-76
2021/03/15 00:35:09;;;;;;;;;;;7.80;69.90;;;;;;5088531;28;20318;-76
2021/03/15 00:37:36;;;;;;;;;;;7.80;69.80;;;;;;5092649;28;19920;-76
2021/03/15 00:40:02;;;;;;;;;;;7.70;69.40;;;;;;5092521;28;19927;-75
2021/03/15 00:42:29;;;;;;;;;;;7.70;69.50;;;;;;5092109;28;19946;-75
2021/03/15 00:44:55;;;;;;;;;;;7.70;69.60;;;;;;5088563;28;20019;-75
2021/03/15 00:47:21;;;;;;;;;;;7.70;69.50;;;;;;5095072;28;19920;-76
2021/03/15 00:49:48;;;;;;;;;;;7.70;69.50;;;;;;5092638;28;20432;-77
2021/03/15 00:52:15;;;;;;;;;;;7.70;69.50;;;;;;5095352;28;19927;-75
2021/03/15 00:54:41;;;;;;;;;;;7.70;69.00;;;;;;5090944;28;19946;-77
2021/03/15 00:57:07;;;;;;;;;;;7.70;69.60;;;;;;5092091;28;19939;-78
2021/03/15 00:59:33;;;;;;;;;;;7.60;69.60;;;;;;5100567;28;19924;-75
2021/03/15 01:02:00;;;;;;;;;;;7.60;69.80;;;;;;5091956;28;19924;-75
2021/03/15 01:04:26;;;;;;;;;;;7.60;69.80;;;;;;5091660;28;19967;-76
2021/03/15 01:06:53;;;;;;;;;;;7.60;69.60;;;;;;5094104;28;19923;-76
2021/03/15 01:09:19;;;;;;;;;;;7.50;69.50;;;;;;5092063;28;20399;-76
2021/03/15 01:11:46;;;;;;;;;;;7.50;69.70;;;;;;5092061;28;19924;-75
2021/03/15 01:14:12;;;;;;;;;;;7.50;69.70;;;;;;5092578;28;19942;-76
2021/03/15 01:16:39;;;;;;;;;;;7.50;69.60;;;;;;5095258;28;19920;-75
2021/03/15 01:19:05;;;;;;;;;;;7.50;69.70;;;;;;5092536;28;19923;-75
2021/03/15 01:21:31;;;;;;;;;;;7.50;69.60;;;;;;5089884;28;19924;-75
2021/03/15 01:23:59;;;;;;;;;;;7.40;69.80;;;;;;5092131;28;20398;-75
2021/03/15 01:26:25;;;;;;;;;;;7.40;70.10;;;;;;5091890;28;20364;-76
2021/03/15 01:28:51;;;;;;;;;;;7.30;70.10;;;;;;5092230;28;19920;-75
2021/03/15 01:31:18;;;;;;;;;;;7.30;70.00;;;;;;5096801;28;19920;-76
2021/03/15 01:33:44;;;;;;;;;;;7.30;70.40;;;;;;5092213;28;20710;-75
2021/03/15 01:36:10;;;;;;;;;;;7.30;70.50;;;;;;5094837;28;19923;-75
2021/03/15 01:38:37;;;;;;;;;;;7.30;70.40;;;;;;5092062;28;19924;-75
2021/03/15 01:41:04;;;;;;;;;;;7.30;70.30;;;;;;5095376;28;19931;-76
2021/03/15 01:43:31;;;;;;;;;;;7.20;70.10;;;;;;5095960;28;20032;-76
2021/03/15 01:45:57;;;;;;;;;;;7.30;70.40;;;;;;5095129;28;20379;-76
2021/03/15 01:48:23;;;;;;;;;;;7.30;70.40;;;;;;5094510;28;19943;-76
2021/03/15 01:50:50;;;;;;;;;;;7.30;70.50;;;;;;5095260;28;19946;-75
2021/03/15 01:53:17;;;;;;;;;;;7.30;70.20;;;;;;5095970;28;19924;-76
2021/03/15 01:55:43;;;;;;;;;;;7.20;70.10;;;;;;5095727;28;19943;-76
2021/03/15 01:58:11;;;;;;;;;;;7.20;70.20;;;;;;5095498;28;19920;-75
2021/03/15 02:00:37;;;;;;;;;;;7.20;70.40;;;;;;5091134;28;19920;-75
2021/03/15 02:03:05;;;;;;;;;;;7.20;70.10;;;;;;5098141;28;20367;-75
2021/03/15 02:05:32;;;;;;;;;;;7.20;70.20;;;;;;5095171;28;19924;-76
2021/03/15 02:07:58;;;;;;;;;;;7.30;70.10;;;;;;5095589;28;19924;-76
2021/03/15 02:10:25;;;;;;;;;;;7.30;69.90;;;;;;5095037;28;19966;-76
2021/03/15 02:13:03;;;;;;;;;;;7.30;69.70;;;;;;5089874;28;19931;-76
2021/03/15 02:15:35;;;;;;;;;;;7.30;69.80;;;;;;5092926;28;19920;-76
2021/03/15 02:18:05;;;;;;;;;;;7.20;69.50;;;;;;5094778;28;19927;-76
2021/03/15 02:21:08;;;;;;;;;;;7.20;69.60;;;;;;5094987;28;19920;-76
2021/03/15 02:23:39;;;;;;;;;;;7.20;69.70;;;;;;5091481;28;19920;-75
2021/03/15 02:26:25;;;;;;;;;;;7.10;70.00;;;;;;5095045;28;19928;-75
2021/03/15 02:29:12;;;;;;;;;;;7.10;70.40;;;;;;5094713;28;19923;-76
2021/03/15 02:31:44;;;;;;;;;;;7.10;70.60;;;;;;5087629;28;20380;-76
2021/03/15 02:34:16;;;;;;;;;;;7.10;70.30;;;;;;5094363;28;19920;-76
2021/03/15 02:36:46;;;;;;;;;;;7.10;70.40;;;;;;5094198;28;19977;-76
2021/03/15 02:39:16;;;;;;;;;;;7.20;70.20;;;;;;5094549;28;20245;-76
2021/03/15 02:41:43;;;;;;;;;;;7.20;70.20;;;;;;5092520;28;20253;-76
2021/03/15 02:44:10;;;;;;;;;;;7.20;69.90;;;;;;5094394;28;20364;-75
2021/03/15 02:46:37;;;;;;;;;;;7.20;69.70;;;;;;5096079;28;19943;-76
2021/03/15 02:49:13;;;;;;;;;;;7.20;69.70;;;;;;5094040;28;19931;-75
2021/03/15 02:51:40;;;;;;;;;;;7.10;69.80;;;;;;5093308;28;19920;-75
2021/03/15 02:54:08;;;;;;;;;;;7.10;70.00;;;;;;5094558;28;20368;-75
2021/03/15 02:56:38;;;;;;;;;;;7.00;70.20;;;;;;5094577;28;19928;-75
2021/03/15 02:59:05;;;;;;;;;;;7.00;70.50;;;;;;5096238;28;19924;-75
2021/03/15 03:01:32;;;;;;;;;;;6.90;70.60;;;;;;5093957;28;19935;-75
2021/03/15 03:03:59;;;;;;;;;;;6.90;70.50;;;;;;5094286;28;19935;-75
2021/03/15 03:06:27;;;;;;;;;;;7.00;70.20;;;;;;5093729;28;19959;-76
2021/03/15 03:08:54;;;;;;;;;;;7.00;70.30;;;;;;5092023;28;19924;-75
2021/03/15 03:11:23;;;;;;;;;;;7.00;70.50;;;;;;5093669;28;19923;-74
2021/03/15 03:13:50;;;;;;;;;;;7.00;70.30;;;;;;5093817;28;19927;-77
2021/03/15 03:16:17;;;;;;;;;;;7.00;70.10;;;;;;5094113;28;19924;-77
2021/03/15 03:18:44;;;;;;;;;;;7.00;69.90;;;;;;5094126;28;19928;-77
2021/03/15 03:21:11;;;;;;;;;;;7.00;70.10;;;;;;5093549;28;19931;-76
2021/03/15 03:23:38;;;;;;;;;;;6.90;70.00;;;;;;5093456;28;19920;-78
2021/03/15 03:26:05;;;;;;;;;;;6.90;70.00;;;;;;5093445;28;20007;-77
2021/03/15 03:28:32;;;;;;;;;;;6.90;70.20;;;;;;5100634;28;20368;-78
2021/03/15 03:31:01;;;;;;;;;;;6.90;70.00;;;;;;5098118;27;19929;-77
2021/03/15 03:33:27;;;;;;;;;;;6.90;70.50;;;;;;5093503;28;19934;-76
2021/03/15 03:35:53;;;;;;;;;;;6.90;71.00;;;;;;5100590;28;19923;-76
2021/03/15 03:38:19;;;;;;;;;;;6.90;71.10;;;;;;5093840;28;20018;-76
2021/03/15 03:40:47;;;;;;;;;;;7.00;70.90;;;;;;5101660;28;20588;-76
2021/03/15 03:43:13;;;;;;;;;;;7.10;70.80;;;;;;5093798;28;20350;-75
2021/03/15 03:45:41;;;;;;;;;;;7.10;70.40;;;;;;5092997;28;19927;-76
2021/03/15 03:48:08;;;;;;;;;;;7.10;70.30;;;;;;5094281;28;19924;-75
2021/03/15 03:50:35;;;;;;;;;;;7.20;70.30;;;;;;5093079;28;19924;-75
2021/03/15 03:53:05;;;;;;;;;;;7.20;70.30;;;;;;5092835;28;19920;-76
2021/03/15 03:55:34;;;;;;;;;;;7.20;70.30;;;;;;5092867;28;19985;-77
2021/03/15 03:58:01;;;;;;;;;;;7.20;70.20;;;;;;5092659;28;19920;-76
2021/03/15 04:00:28;;;;;;;;;;;7.30;70.30;;;;;;5093429;28;20287;-75
2021/03/15 04:02:57;;;;;;;;;;;7.30;70.20;;;;;;5090957;28;19920;-76
2021/03/15 04:05:25;;;;;;;;;;;7.20;70.10;;;;;;5092964;28;19931;-76
2021/03/15 04:07:55;;;;;;;;;;;7.30;70.30;;;;;;5089496;28;19932;-76
2021/03/15 04:10:22;;;;;;;;;;;7.30;70.10;;;;;;5092696;28;20355;-76
2021/03/15 04:12:51;;;;;;;;;;;7.40;70.50;;;;;;5092588;28;19920;-76
2021/03/15 04:15:18;;;;;;;;;;;7.40;70.60;;;;;;5092543;28;19920;-77
2021/03/15 04:17:45;;;;;;;;;;;7.40;70.70;;;;;;5097488;28;19921;-76
2021/03/15 04:20:16;;;;;;;;;;;7.40;70.80;;;;;;5092500;28;19925;-77
2021/03/15 04:22:46;;;;;;;;;;;7.40;70.90;;;;;;5094169;28;20368;-75
2021/03/15 04:25:13;;;;;;;;;;;7.40;71.00;;;;;;5093185;28;19924;-75
2021/03/15 04:27:41;;;;;;;;;;;7.40;71.50;;;;;;5091337;28;20315;-76
2021/03/15 04:30:08;;;;;;;;;;;7.50;71.50;;;;;;5107819;28;19920;-75
2021/03/15 04:32:35;;;;;;;;;;;7.50;71.30;;;;;;5092449;28;19929;-75
2021/03/15 04:35:01;;;;;;;;;;;7.60;71.20;;;;;;5092757;28;19920;-75
2021/03/15 04:37:29;;;;;;;;;;;7.60;71.20;;;;;;5092823;28;20368;-76
2021/03/15 04:39:56;;;;;;;;;;;7.60;71.10;;;;;;5096037;28;20117;-75
2021/03/15 04:42:22;;;;;;;;;;;7.60;71.20;;;;;;5098108;28;20379;-76
2021/03/15 04:44:49;;;;;;;;;;;7.60;71.20;;;;;;5093313;28;19920;-77
2021/03/15 04:47:17;;;;;;;;;;;7.60;71.20;;;;;;5092813;28;19924;-77
2021/03/15 04:49:44;;;;;;;;;;;7.60;71.10;;;;;;5091867;28;19930;-77
2021/03/15 04:52:11;;;;;;;;;;;7.60;71.20;;;;;;5093206;28;19927;-77
2021/03/15 04:54:38;;;;;;;;;;;7.70;71.30;;;;;;5090971;28;19920;-77
2021/03/15 04:57:04;;;;;;;;;;;7.70;71.10;;;;;;5101756;28;19920;-77
2021/03/15 04:59:32;;;;;;;;;;;7.70;71.10;;;;;;5098504;28;19920;-77
2021/03/15 05:01:59;;;;;;;;;;;7.70;71.10;;;;;;5091880;28;19999;-76
2021/03/15 05:04:26;;;;;;;;;;;7.70;71.20;;;;;;5091738;28;19924;-76
2021/03/15 05:06:52;;;;;;;;;;;7.70;71.20;;;;;;5092470;28;19920;-76
2021/03/15 05:09:19;;;;;;;;;;;7.70;71.30;;;;;;5092296;28;19920;-75
2021/03/15 05:11:47;;;;;;;;;;;7.70;71.40;;;;;;5103323;28;19920;-76
2021/03/15 05:14:13;;;;;;;;;;;7.70;71.40;;;;;;5092665;28;19927;-77
2021/03/15 05:16:40;;;;;;;;;;;7.70;71.60;;;;;;5098307;28;20410;-76
2021/03/15 05:19:07;;;;;;;;;;;7.70;71.70;;;;;;5095631;28;19920;-77
2021/03/15 05:21:33;;;;;;;;;;;7.60;71.90;;;;;;5094450;28;19920;-77
2021/03/15 05:24:00;;;;;;;;;;;7.60;72.40;;;;;;5096402;28;20287;-77
2021/03/15 05:26:27;;;;;;;;;;;7.60;72.60;;;;;;5098584;28;19927;-76
2021/03/15 05:28:56;;;;;;;;;;;7.60;73.10;;;;;;5096251;28;19974;-77
2021/03/15 05:31:22;;;;;;;;;;;7.60;73.30;;;;;;5095507;28;20349;-76
2021/03/15 05:33:51;;;;;;;;;;;7.60;73.20;;;;;;5097366;28;19950;-76
2021/03/15 05:36:18;;;;;;;;;;;7.50;73.10;;;;;;5095207;28;19932;-76
2021/03/15 05:38:44;;;;;;;;;;;7.50;73.30;;;;;;5095685;28;19966;-77
2021/03/15 05:41:12;;;;;;;;;;;7.50;73.40;;;;;;5095687;28;19942;-77
2021/03/15 05:43:56;;;;;;;;;;;7.50;73.60;;;;;;5094692;28;20257;-77
2021/03/15 05:46:37;;;;;;;;;;;7.50;73.50;;;;;;5096047;28;19920;-76
2021/03/15 05:49:21;;;;;;;;;;;7.60;73.90;;;;;;5092289;28;19924;-76
2021/03/15 05:52:08;;;;;;;;;;;7.50;73.90;;;;;;5103668;28;19920;-76
2021/03/15 05:54:49;;;;;;;;;;;7.50;74.20;;;;;;5098825;28;20372;-76
2021/03/15 05:57:36;;;;;;;;;;;7.50;74.50;;;;;;5094556;28;20315;-76
2021/03/15 06:00:08;;;;;;;;;;;7.50;74.80;;;;;;5087781;28;20010;-76
2021/03/15 06:02:50;;;;;;;;;;;7.50;74.40;;;;;;5095207;28;19920;-77
2021/03/15 06:05:18;;;;;;;;;;;7.50;74.50;;;;;;5094725;28;20396;-79
2021/03/15 06:07:46;;;;;;;;;;;7.50;74.70;;;;;;5095262;28;19971;-80
2021/03/15 06:10:15;;;;;;;;;;;7.50;74.80;;;;;;5095317;28;19931;-79
2021/03/15 06:12:46;;;;;;;;;;;7.50;74.90;;;;;;5097304;28;19939;-81
2021/03/15 06:15:15;;;;;;;;;;;7.50;74.80;;;;;;5105560;28;20508;-81
2021/03/15 06:17:41;;;;;;;;;;;7.50;74.60;;;;;;5094667;28;20011;-81
2021/03/15 06:20:13;;;;;;;;;;;7.50;74.40;;;;;;5094473;28;19927;-81
2021/03/15 06:22:39;;;;;;;;;;;7.40;74.80;;;;;;5110311;28;20276;-79
2021/03/15 06:25:06;;;;;;;;;;;7.40;75.00;;;;;;5100157;28;20276;-79
2021/03/15 06:27:33;;;;;;;;;;;7.40;75.00;;;;;;5094357;28;19924;-81
2021/03/15 06:29:59;;;;;;;;;;;7.40;74.90;;;;;;5098828;28;19920;-82
2021/03/15 06:32:27;;;;;;;;;;;7.40;75.20;;;;;;5094307;28;19924;-78
2021/03/15 06:34:55;;;;;;;;;;;7.40;75.30;;;;;;5102692;28;19973;-78
2021/03/15 06:37:21;;;;;;;;;;;7.40;75.30;;;;;;5095950;28;20018;-79
2021/03/15 06:39:49;;;;;;;;;;;7.30;75.90;;;;;;5091405;28;19970;-79
2021/03/15 06:42:17;;;;;;;;;;;7.30;76.30;;;;;;5093111;28;19977;-78
2021/03/15 06:44:44;;;;;;;;;;;7.30;76.30;;;;;;5093128;28;19979;-79
2021/03/15 06:47:11;;;;;;;;;;;7.40;76.60;;;;;;5099813;28;20002;-81
2021/03/15 06:49:41;;;;;;;;;;;7.40;76.70;;;;;;5092822;28;19958;-82
2021/03/15 06:52:08;;;;;;;;;;;7.60;76.60;;;;;;5090202;28;19920;-81
2021/03/15 06:54:47;;;;;;;;;;;7.70;75.80;;;;;;5100008;28;19924;-80
2021/03/15 07:00:42;;;;;;;;;;;7.80;74.40;;;;;;5083837;28;19965;-83
2021/03/15 07:08:23;;;;;;;;;;;7.90;73.60;;;;;;4580492;26;19988;-75
2021/03/15 07:10:50;;;;;;;;;;;7.90;74.10;;;;;;5009357;28;20028;-74
2021/03/15 07:13:20;;;;;;;;;;;8.00;74.10;;;;;;5013607;28;19929;-75
2021/03/15 07:15:48;;;;;;;;;;;8.00;73.80;;;;;;5022836;28;19936;-74
2021/03/15 07:18:15;;;;;;;;;;;8.10;73.60;;;;;;5012189;28;19930;-74
2021/03/15 07:20:48;;;;;;;;;;;8.20;73.60;;;;;;5011058;28;20386;-75
2021/03/15 07:23:15;;;;;;;;;;;8.30;73.50;;;;;;5018101;28;19932;-75
2021/03/15 07:25:43;;;;;;;;;;;8.30;72.80;;;;;;5017366;28;19926;-74
2021/03/15 07:28:10;;;;;;;;;;;8.30;72.90;;;;;;5017169;28;19925;-74
2021/03/15 07:30:40;;;;;;;;;;;8.30;72.90;;;;;;5007966;28;19933;-74
2021/03/15 07:33:14;;;;;;;;;;;8.20;72.20;;;;;;5002677;28;19929;-74
2021/03/15 07:35:43;;;;;;;;;;;8.10;72.20;;;;;;5021681;28;20024;-74
2021/03/15 07:38:10;;;;;;;;;;;8.00;73.90;;;;;;5016739;28;20354;-74
2021/03/15 07:40:38;;;;;;;;;;;7.80;75.30;;;;;;5013071;28;19988;-74
2021/03/15 07:43:06;;;;;;;;;;;7.60;76.90;;;;;;5013732;28;19926;-74
2021/03/15 07:45:34;;;;;;;;;;;7.50;78.20;;;;;;5020847;28;19925;-73
2021/03/15 07:48:07;;;;;;;;;;;7.40;79.20;;;;;;5013666;28;20320;-74
2021/03/15 07:50:33;;;;;;;;;;;7.30;79.80;;;;;;5019035;28;19932;-74
2021/03/15 07:52:59;;;;;;;;;;;7.30;80.90;;;;;;5030597;28;19929;-73
2021/03/15 07:55:32;;;;;;;;;;;7.20;81.60;;;;;;5023966;28;19925;-72
2021/03/15 07:57:59;;;;;;;;;;;7.20;82.60;;;;;;5027149;28;19925;-72
2021/03/15 08:00:26;;;;;;;;;;;7.30;83.20;;;;;;5033199;28;19925;-73
2021/03/15 08:02:52;;;;;;;;;;;7.30;83.40;;;;;;5017475;28;19926;-73
2021/03/15 08:05:19;;;;;;;;;;;7.20;83.00;;;;;;5013572;28;20033;-73
2021/03/15 08:07:45;;;;;;;;;;;7.20;83.40;;;;;;5013149;28;19937;-73
2021/03/15 08:10:12;;;;;;;;;;;7.20;84.10;;;;;;5013433;28;19925;-73
2021/03/15 08:12:39;;;;;;;;;;;7.20;83.70;;;;;;5013502;28;19975;-73
2021/03/15 08:15:06;;;;;;;;;;;7.20;83.80;;;;;;5013690;28;19988;-73
2021/03/15 08:17:36;;;;;;;;;;;7.30;83.90;;;;;;5013357;28;19925;-73
2021/03/15 08:20:03;;;;;;;;;;;7.40;84.20;;;;;;5013532;28;19926;-73
2021/03/15 08:22:32;;;;;;;;;;;7.50;84.10;;;;;;5012143;28;19925;-73
2021/03/15 08:24:59;;;;;;;;;;;7.60;83.70;;;;;;5011892;28;19926;-73
2021/03/15 08:27:26;;;;;;;;;;;7.70;82.70;;;;;;5013390;28;19926;-73
2021/03/15 08:29:54;;;;;;;;;;;7.80;82.30;;;;;;5011957;28;19933;-73
2021/03/15 08:32:20;;;;;;;;;;;7.90;82.20;;;;;;5013379;28;19925;-70
2021/03/15 08:34:48;;;;;;;;;;;7.90;81.60;;;;;;5010386;28;19926;-70
2021/03/15 08:37:14;;;;;;;;;;;8.00;82.10;;;;;;4993792;28;19933;-70
2021/03/15 08:39:43;;;;;;;;;;;8.20;82.10;;;;;;4993775;28;19980;-70
2021/03/15 08:42:22;;;;;;;;;;;8.30;82.30;;;;;;4993748;28;19929;-70
2021/03/15 08:44:49;;;;;;;;;;;8.40;80.70;;;;;;4993708;28;19934;-70
2021/03/15 08:47:39;;;;;;;;;;;8.40;80.80;;;;;;4993632;28;19948;-70
2021/03/15 08:50:20;;;;;;;;;;;8.40;81.10;;;;;;4995799;28;20676;-70
2021/03/15 08:52:47;;;;;;;;;;;8.50;80.30;;;;;;4996732;28;20497;-70
2021/03/15 08:55:38;;;;;;;;;;;8.50;80.70;;;;;;4997420;28;19988;-70
2021/03/15 08:58:19;;;;;;;;;;;8.50;80.10;;;;;;4997315;28;19933;-70
2021/03/15 09:00:55;;;;;;;;;;;8.50;79.20;;;;;;4997375;28;19926;-70
2021/03/15 09:03:36;;;;;;;;;;;8.50;79.10;;;;;;5010223;28;19959;-70
2021/03/15 09:06:02;;;;;;;;;;;8.40;78.20;;;;;;5016323;28;19926;-70
2021/03/15 09:08:43;;;;;;;;;;;8.30;78.60;;;;;;5032292;28;20278;-70
2021/03/15 09:11:33;;;;;;;;;;;8.30;78.40;;;;;;5035705;28;19929;-70
2021/03/15 09:14:14;;;;;;;;;;;8.30;78.10;;;;;;5034987;28;19925;-70
2021/03/15 09:16:41;;;;;;;;;;;8.30;78.90;;;;;;5033922;28;19926;-70
2021/03/15 09:19:16;;;;;;;;;;;8.50;79.20;;;;;;5036439;28;20598;-69
2021/03/15 09:21:53;;;;;;;;;;;8.60;79.10;;;;;;5035161;28;19987;-69
2021/03/15 09:24:35;;;;;;;;;;;8.70;78.80;;;;;;5036418;28;19925;-70
2021/03/15 09:27:02;;;;;;;;;;;8.70;78.50;;;;;;5036290;28;19925;-70
2021/03/15 09:29:30;;;;;;;;;;;8.70;78.20;;;;;;5036427;28;19925;-70
2021/03/15 09:32:00;;;;;;;;;;;8.80;78.30;;;;;;5036059;28;20015;-70
2021/03/15 09:34:26;;;;;;;;;;;8.80;78.50;;;;;;5034633;28;19932;-70
2021/03/15 09:36:54;;;;;;;;;;;8.90;78.80;;;;;;5036124;28;19994;-70
2021/03/15 09:39:21;;;;;;;;;;;9.00;78.00;;;;;;5035949;28;19932;-69
2021/03/15 09:41:47;;;;;;;;;;;9.10;79.00;;;;;;5035877;28;19929;-69
2021/03/15 09:44:14;;;;;;;;;;;9.20;78.30;;;;;;5034159;28;19925;-69
2021/03/15 09:46:41;;;;;;;;;;;9.20;77.40;;;;;;5035817;28;19925;-69
2021/03/15 09:49:07;;;;;;;;;;;9.20;77.10;;;;;;5035684;28;19925;-70
2021/03/15 09:51:33;;;;;;;;;;;9.20;77.20;;;;;;5035915;28;19925;-69
2021/03/15 09:54:00;;;;;;;;;;;9.30;77.60;;;;;;5034340;28;19979;-69
2021/03/15 09:56:26;;;;;;;;;;;9.30;77.70;;;;;;5035837;28;19925;-70
2021/03/15 09:58:52;;;;;;;;;;;9.40;77.60;;;;;;5035604;28;19929;-70
2021/03/15 10:01:20;;;;;;;;;;;9.40;77.60;;;;;;5015547;28;19925;-70
2021/03/15 10:03:51;;;;;;;;;;;9.50;77.70;;;;;;5015750;28;19926;-70
2021/03/15 10:06:21;;;;;;;;;;;9.50;77.60;;;;;;5015809;28;19930;-70
2021/03/15 10:08:48;;;;;;;;;;;9.60;77.90;;;;;;5031745;28;19972;-70
2021/03/15 10:11:14;;;;;;;;;;;9.70;77.00;;;;;;5035020;28;19972;-70
2021/03/15 10:13:41;;;;;;;;;;;9.80;77.70;;;;;;5035263;28;19925;-70
2021/03/15 10:16:07;;;;;;;;;;;9.90;77.40;;;;;;5032493;28;19929;-69
2021/03/15 10:18:34;;;;;;;;;;;10.00;76.20;;;;;;5014113;28;19926;-70
2021/03/15 10:21:01;;;;;;;;;;;10.00;75.90;;;;;;5014326;28;20341;-70
2021/03/15 10:23:31;;;;;;;;;;;9.90;75.30;;;;;;5015818;28;19987;-69
2021/03/15 10:25:58;;;;;;;;;;;9.70;75.90;;;;;;5014780;28;19979;-70
2021/03/15 10:28:25;;;;;;;;;;;9.60;77.20;;;;;;5019009;28;19925;-69
2021/03/15 10:30:51;;;;;;;;;;;9.60;77.10;;;;;;5016893;28;19995;-69
2021/03/15 10:33:18;;;;;;;;;;;9.50;77.00;;;;;;5019804;28;19925;-70
2021/03/15 10:35:45;;;;;;;;;;;9.50;77.50;;;;;;5016462;28;19925;-70
2021/03/15 10:38:13;;;;;;;;;;;9.60;77.70;;;;;;5008103;28;19948;-70
2021/03/15 10:40:39;;;;;;;;;;;9.70;77.90;;;;;;5018342;28;19929;-70
2021/03/15 10:43:06;;;;;;;;;;;9.70;77.60;;;;;;5014937;28;19952;-70
2021/03/15 10:45:32;;;;;;;;;;;9.60;76.70;;;;;;5015027;28;19933;-70
2021/03/15 10:48:03;;;;;;;;;;;9.60;77.50;;;;;;5030511;28;19925;-70
2021/03/15 10:50:30;;;;;;;;;;;9.60;77.80;;;;;;5033226;28;19979;-69
2021/03/15 10:52:58;;;;;;;;;;;9.80;78.20;;;;;;5033745;28;19936;-70
2021/03/15 10:55:31;;;;;;;;;;;9.90;78.10;;;;;;5023808;28;19925;-69
2021/03/15 10:57:58;;;;;;;;;;;10.10;76.70;;;;;;5020828;28;20406;-70
2021/03/15 11:00:26;;;;;;;;;;;10.20;76.50;;;;;;5029749;28;19929;-70
2021/03/15 11:02:52;;;;;;;;;;;10.30;74.70;;;;;;5015210;28;19926;-69
2021/03/15 11:05:18;;;;;;;;;;;10.70;76.00;;;;;;5023922;28;19925;-69
2021/03/15 11:07:46;;;;;;;;;;;11.00;75.60;;;;;;5015069;28;19925;-70
2021/03/15 11:10:15;;;;;;;;;;;11.30;75.00;;;;;;5014399;28;19926;-69
2021/03/15 11:12:43;;;;;;;;;;;11.50;72.70;;;;;;5013060;28;19925;-70
2021/03/15 11:15:11;;;;;;;;;;;11.60;71.20;;;;;;5013890;28;19936;-70
2021/03/15 11:17:37;;;;;;;;;;;11.60;71.60;;;;;;5018745;28;20370;-70
2021/03/15 11:20:04;;;;;;;;;;;11.60;71.10;;;;;;5034080;28;19925;-71
2021/03/15 11:22:49;;;;;;;;;;;11.70;70.50;;;;;;5031922;28;19933;-70
2021/03/15 11:25:18;;;;;;;;;;;11.70;71.10;;;;;;5031304;28;19971;-70
2021/03/15 11:27:49;;;;;;;;;;;11.80;70.40;;;;;;5023116;28;19926;-69
2021/03/15 11:30:22;;;;;;;;;;;11.60;66.90;;;;;;5013585;28;19937;-69
2021/03/15 11:32:49;;;;;;;;;;;11.50;68.30;;;;;;5033564;28;19926;-69
2021/03/15 11:35:18;;;;;;;;;;;11.50;69.10;;;;;;5032837;28;19933;-70
2021/03/15 11:37:46;;;;;;;;;;;11.50;68.80;;;;;;5017104;28;19925;-69
2021/03/15 11:40:14;;;;;;;;;;;11.70;69.90;;;;;;5013586;28;20447;-70
2021/03/15 11:42:41;;;;;;;;;;;12.00;69.20;;;;;;5014005;28;19926;-69
2021/03/15 11:45:08;;;;;;;;;;;12.20;68.20;;;;;;5014438;28;19925;-70
2021/03/15 11:47:34;;;;;;;;;;;12.30;67.60;;;;;;5013455;28;19980;-70
2021/03/15 11:50:00;;;;;;;;;;;12.20;66.90;;;;;;5017423;28;19925;-70
2021/03/15 11:52:27;;;;;;;;;;;12.00;66.40;;;;;;5032090;28;20373;-70
2021/03/15 11:54:53;;;;;;;;;;;11.70;65.90;;;;;;5032639;28;19934;-70
2021/03/15 11:57:20;;;;;;;;;;;11.50;66.10;;;;;;5023576;28;19932;-70
2021/03/15 11:59:47;;;;;;;;;;;11.50;67.40;;;;;;5014061;28;20333;-70
2021/03/15 12:02:13;;;;;;;;;;;11.50;67.70;;;;;;5029844;28;19925;-70
2021/03/15 12:04:40;;;;;;;;;;;11.40;67.50;;;;;;5014218;28;19936;-70
2021/03/15 12:07:07;;;;;;;;;;;11.40;67.30;;;;;;5017650;28;19929;-69
2021/03/15 12:09:33;;;;;;;;;;;11.30;67.20;;;;;;5018690;28;19925;-70
2021/03/15 12:11:59;;;;;;;;;;;11.30;67.40;;;;;;5013456;28;19936;-70
2021/03/15 12:14:25;;;;;;;;;;;11.40;67.70;;;;;;5013118;28;19980;-70
2021/03/15 12:16:53;;;;;;;;;;;11.60;67.40;;;;;;5007098;28;20301;-70
2021/03/15 12:19:19;;;;;;;;;;;11.80;67.10;;;;;;4999135;28;19926;-70
2021/03/15 12:21:45;;;;;;;;;;;11.90;66.50;;;;;;5008447;28;19929;-71
2021/03/15 12:24:12;;;;;;;;;;;11.80;66.00;;;;;;5010904;28;20444;-71
2021/03/15 12:26:38;;;;;;;;;;;11.70;65.90;;;;;;5014364;28;19925;-70
2021/03/15 12:29:05;;;;;;;;;;;11.50;65.70;;;;;;5002772;28;19930;-71
2021/03/15 12:31:31;;;;;;;;;;;11.30;66.20;;;;;;5011929;28;19933;-70
2021/03/15 12:34:00;;;;;;;;;;;11.30;66.80;;;;;;5020132;28;20117;-70
2021/03/15 12:36:26;;;;;;;;;;;11.20;66.60;;;;;;5026547;28;19929;-70
2021/03/15 12:38:53;;;;;;;;;;;11.20;67.10;;;;;;5017202;28;19932;-71
2021/03/15 12:41:19;;;;;;;;;;;11.30;67.00;;;;;;5012736;28;19953;-70
2021/03/15 12:43:45;;;;;;;;;;;11.30;67.20;;;;;;5012528;28;20040;-71
2021/03/15 12:46:18;;;;;;;;;;;11.40;67.00;;;;;;5012890;28;19933;-70
2021/03/15 12:48:44;;;;;;;;;;;11.50;66.80;;;;;;5012626;28;20016;-71
2021/03/15 12:51:11;;;;;;;;;;;11.50;66.50;;;;;;5023461;28;19933;-71
2021/03/15 12:53:37;;;;;;;;;;;11.60;66.30;;;;;;5023284;28;19932;-71
2021/03/15 12:56:04;;;;;;;;;;;11.80;65.70;;;;;;5013185;28;20293;-71
2021/03/15 12:58:30;;;;;;;;;;;12.00;65.30;;;;;;5003896;28;19933;-70
2021/03/15 13:00:56;;;;;;;;;;;12.20;64.70;;;;;;5009808;28;19952;-71
2021/03/15 13:03:23;;;;;;;;;;;12.40;62.10;;;;;;5012959;28;19952;-71
2021/03/15 13:05:49;;;;;;;;;;;12.40;61.90;;;;;;5021319;28;19936;-71
2021/03/15 13:08:16;;;;;;;;;;;12.40;61.60;;;;;;5032568;28;19925;-71
2021/03/15 13:10:43;;;;;;;;;;;12.30;60.00;;;;;;5016597;28;19925;-71
2021/03/15 13:13:09;;;;;;;;;;;12.20;59.60;;;;;;4998380;28;19996;-72
2021/03/15 13:15:35;;;;;;;;;;;12.20;59.50;;;;;;5008244;28;19930;-71
2021/03/15 13:18:02;;;;;;;;;;;12.20;59.60;;;;;;5019315;28;19943;-71
2021/03/15 13:20:28;;;;;;;;;;;12.10;58.90;;;;;;5010817;28;20418;-70
2021/03/15 13:22:55;;;;;;;;;;;12.00;58.50;;;;;;5015390;28;19929;-71
2021/03/15 13:25:22;;;;;;;;;;;12.00;58.40;;;;;;5012541;28;19929;-70
2021/03/15 13:27:48;;;;;;;;;;;11.80;57.00;;;;;;5012229;28;19925;-70
2021/03/15 13:30:16;;;;;;;;;;;11.70;56.30;;;;;;5019169;28;19926;-71
2021/03/15 13:32:44;;;;;;;;;;;11.50;56.00;;;;;;5016303;28;19925;-71
2021/03/15 13:35:11;;;;;;;;;;;11.40;55.60;;;;;;5021463;28;19925;-71
2021/03/15 13:37:39;;;;;;;;;;;11.30;55.90;;;;;;5015535;28;19925;-71
2021/03/15 13:40:06;;;;;;;;;;;11.30;56.10;;;;;;5021394;28;19932;-71
2021/03/15 13:42:34;;;;;;;;;;;11.30;56.30;;;;;;5015506;28;19995;-73
2021/03/15 13:45:00;;;;;;;;;;;11.30;55.80;;;;;;5014864;28;19936;-73
2021/03/15 13:47:26;;;;;;;;;;;11.30;56.20;;;;;;5003620;28;19984;-73
2021/03/15 13:49:53;;;;;;;;;;;11.50;55.70;;;;;;5013704;28;19929;-74
2021/03/15 13:52:19;;;;;;;;;;;11.60;55.70;;;;;;5019339;28;19925;-73
2021/03/15 13:54:45;;;;;;;;;;;11.70;55.40;;;;;;5030032;28;20317;-72
2021/03/15 13:57:11;;;;;;;;;;;11.70;54.50;;;;;;5015348;28;19972;-74
2021/03/15 13:59:39;;;;;;;;;;;11.60;53.40;;;;;;5030070;28;19936;-73
2021/03/15 14:02:05;;;;;;;;;;;11.50;53.30;;;;;;5032831;28;20377;-72
2021/03/15 14:04:31;;;;;;;;;;;11.30;52.60;;;;;;5014092;28;19933;-73
2021/03/15 14:06:57;;;;;;;;;;;11.20;52.20;;;;;;5009531;28;19926;-73
2021/03/15 14:09:24;;;;;;;;;;;11.20;52.10;;;;;;4994702;28;19926;-72
2021/03/15 14:11:50;;;;;;;;;;;11.10;52.90;;;;;;5004207;28;19925;-72
2021/03/15 14:14:16;;;;;;;;;;;11.20;53.10;;;;;;5031544;28;19932;-73
2021/03/15 14:16:46;;;;;;;;;;;11.10;53.20;;;;;;5015078;28;19926;-73
2021/03/15 14:19:13;;;;;;;;;;;11.10;52.60;;;;;;5015364;28;20016;-73
2021/03/15 14:21:39;;;;;;;;;;;11.10;52.40;;;;;;5015343;28;19933;-73
2021/03/15 14:24:05;;;;;;;;;;;11.10;52.70;;;;;;5031737;28;19952;-73
2021/03/15 14:26:32;;;;;;;;;;;11.10;52.80;;;;;;5020571;28;19926;-74
2021/03/15 14:28:58;;;;;;;;;;;11.30;53.00;;;;;;5013316;28;20386;-73
2021/03/15 14:31:24;;;;;;;;;;;11.50;53.20;;;;;;5014974;28;19926;-72
2021/03/15 14:33:51;;;;;;;;;;;11.80;53.10;;;;;;5013365;28;19929;-72
2021/03/15 14:36:18;;;;;;;;;;;11.90;52.20;;;;;;5014142;28;20325;-73
2021/03/15 14:38:45;;;;;;;;;;;12.10;51.70;;;;;;5022088;28;19929;-72
2021/03/15 14:41:11;;;;;;;;;;;12.10;51.20;;;;;;5034524;28;20468;-72